Terminal Aerodrome Forecast
Issued by NWS

Home | Current Version | Previous Version | Text Only | Print | Product List | Glossary On
Versions: 1 2 3 4 5 6 7 8 9 10 11 12 13
000
FTUS46 KLOX 011735
TAFVNY
TAF
KVNY 011735Z 0118/0218 12008KT P6SM OVC150
     FM012000 15010KT P6SM VCSH SCT080 OVC150
     FM020300 VRB03KT P6SM BKN150
     FM021600 12007KT P6SM SCT150=

USA.gov is the U.S. government's official web portal to all federal, state and local government web resources and services.